CheckWX is a tool to help pilots better visualize weather data.  It is not intended as a substitute for an official pre-flight weather briefing.

04:18:10 UTC

KOJC METAR
Johnson County Executive Airport
Olathe, Kansas, USA
Current

25 mins ago

KOJC 270353Z AUTO 16008KT 10SM CLR 25/21 A3010 RMK AO2 SLP178 T02500206
Observed
Jun-27 @ 03:53 UTC
Wind
  • 160° at 8 KTS
Visibility
10 SM
Flight Rules
VFR
Cloud Levels
  • Clear skies
Temperature
25°C / 77°F
Dewpoint
21°C / 70°F
Humidity
79%
Altimeter
30.1" Hg
Pressure
1019.32 hPa
Previous

1 hour ago

KOJC 270253Z AUTO 16007KT 10SM CLR 27/22 A3008 RMK AO2 SLP172 T02670217 53011
Observed
Jun-27 @ 02:53 UTC
Wind
  • 160° at 7 KTS
Visibility
10 SM
Flight Rules
VFR
Cloud Levels
  • Clear skies
Temperature
27°C / 81°F
Dewpoint
22°C / 72°F
Heat Index
29°C / 85°F
Humidity
74%
Altimeter
30.08" Hg
Pressure
1018.62 hPa
Previous

2 hours ago

KOJC 270153Z 16008KT 10SM CLR 27/23 A3005 RMK AO2 SLP163 T02720228
Observed
Jun-27 @ 01:53 UTC
Wind
  • 160° at 8 KTS
Visibility
10 SM
Flight Rules
VFR
Cloud Levels
  • Clear skies
Temperature
27°C / 81°F
Dewpoint
23°C / 73°F
Heat Index
30°C / 86°F
Humidity
79%
Altimeter
30.05" Hg
Pressure
1017.62 hPa